Time;durP1;ratioP1;P1;durP2;ratioP2;P2;SDS_P1;SDS_P2;PMS_P1;PMS_P2;Temp;Humidity;BMP_temperature;BMP_pressure;BME280_temperature;BME280_humidity;BME280_pressure;Samples;Min_cycle;Max_cycle;Signal;HPM_P1;HPM_P2
2023/12/18 00:00:05;;;;;;;15.90;9.70;;;;;;;6.39;89.79;101364.77;112573;246;38751;-76
2023/12/18 00:02:39;;;;;;;15.10;9.90;;;;;;;6.41;89.93;101363.39;112392;244;155369;-73
2023/12/18 00:05:14;;;;;;;14.80;9.60;;;;;;;6.45;89.79;101359.02;112529;246;38213;-73
2023/12/18 00:07:48;;;;;;;13.50;10.10;;;;;;;6.47;89.66;101351.73;112408;244;154074;-74
2023/12/18 00:10:22;;;;;;;15.80;10.10;;;;;;;6.50;89.77;101349.45;112503;246;38272;-74
2023/12/18 00:12:56;;;;;;;13.60;9.30;;;;;;;6.51;89.49;101345.64;112557;246;38711;-75
2023/12/18 00:15:31;;;;;;;15.70;9.80;;;;;;;6.51;89.36;101345.47;112345;244;155608;-75
2023/12/18 00:18:05;;;;;;;14.20;9.10;;;;;;;6.53;89.43;101349.62;112541;246;38622;-74
2023/12/18 00:20:39;;;;;;;14.00;9.80;;;;;;;6.55;89.25;101341.47;112378;244;155322;-74
2023/12/18 00:23:14;;;;;;;15.00;9.30;;;;;;;6.57;89.24;101336.42;112508;246;38826;-73
2023/12/18 00:25:48;;;;;;;16.70;10.10;;;;;;;6.58;89.26;101337.79;112372;244;154204;-74
2023/12/18 00:28:22;;;;;;;14.70;10.30;;;;;;;6.60;89.27;101337.79;112514;246;39855;-73
2023/12/18 00:30:56;;;;;;;13.50;9.20;;;;;;;6.61;89.22;101340.73;112560;246;39568;-75
2023/12/18 00:33:30;;;;;;;14.90;9.40;;;;;;;6.64;89.02;101342.27;112346;244;154665;-77
2023/12/18 00:36:05;;;;;;;15.50;9.40;;;;;;;6.66;88.98;101338.27;112555;246;38471;-74
2023/12/18 00:38:39;;;;;;;15.40;10.40;;;;;;;6.70;88.81;101328.88;112379;244;154930;-74
2023/12/18 00:41:13;;;;;;;16.50;10.60;;;;;;;6.70;88.76;101330.44;112403;246;39319;-75
2023/12/18 00:43:47;;;;;;;16.10;9.50;;;;;;;6.70;88.69;101327.84;112374;246;154611;-76
2023/12/18 00:46:21;;;;;;;14.50;9.70;;;;;;;6.72;88.61;101336.84;112427;246;40016;-75
2023/12/18 00:48:55;;;;;;;15.60;9.60;;;;;;;6.74;88.58;101333.71;112545;246;38420;-74
2023/12/18 00:51:29;;;;;;;15.00;9.70;;;;;;;6.77;88.20;101330.05;112284;246;153971;-74
2023/12/18 00:54:03;;;;;;;15.30;10.50;;;;;;;6.76;88.08;101336.30;112408;247;39075;-74
2023/12/18 00:56:38;;;;;;;13.80;9.60;;;;;;;6.77;88.21;101337.16;112299;245;153916;-74
2023/12/18 00:59:13;;;;;;;12.20;9.50;;;;;;;6.75;87.95;101336.13;112399;247;39670;-74
2023/12/18 01:01:47;;;;;;;13.40;8.80;;;;;;;6.75;88.02;101332.14;112319;245;154515;-74
2023/12/18 01:04:21;;;;;;;12.90;8.50;;;;;;;6.75;88.03;101334.39;112394;247;39534;-74
2023/12/18 01:06:55;;;;;;;14.00;8.80;;;;;;;6.78;88.16;101333.67;112444;247;39878;-74
2023/12/18 01:09:29;;;;;;;13.80;9.10;;;;;;;6.78;87.65;101333.86;112261;247;153754;-74
2023/12/18 01:12:04;;;;;;;13.80;8.90;;;;;;;6.77;87.82;101338.89;112413;247;41421;-75
2023/12/18 01:14:38;;;;;;;13.30;9.00;;;;;;;6.78;87.93;101335.41;112220;248;236327;-75
2023/12/18 01:17:12;;;;;;;14.50;8.60;;;;;;;6.80;87.84;101330.90;112405;247;39459;-74
2023/12/18 01:19:46;;;;;;;11.60;8.70;;;;;;;6.80;87.57;101338.17;112373;247;40273;-74
2023/12/18 01:22:20;;;;;;;13.80;9.10;;;;;;;6.82;87.62;101334.70;112459;247;38643;-74
2023/12/18 01:24:54;;;;;;;12.30;8.50;;;;;;;6.83;87.41;101337.80;112421;247;38269;-75
2023/12/18 01:27:29;;;;;;;13.30;9.10;;;;;;;6.84;87.62;101336.41;112273;247;154713;-74
2023/12/18 01:30:03;;;;;;;15.40;9.00;;;;;;;6.84;87.54;101332.94;112394;247;38295;-73
2023/12/18 01:32:37;;;;;;;12.90;8.30;;;;;;;6.83;87.44;101332.95;112261;247;154175;-74
2023/12/18 01:35:11;;;;;;;12.80;8.60;;;;;;;6.85;87.37;101328.60;112448;247;39746;-73
2023/12/18 01:37:45;;;;;;;14.00;9.40;;;;;;;6.88;87.43;101321.45;112404;247;38382;-74
2023/12/18 01:40:19;;;;;;;14.50;8.90;;;;;;;6.91;87.35;101315.20;112305;245;153583;-74
2023/12/18 01:42:53;;;;;;;11.70;8.50;;;;;;;6.93;87.31;101315.17;112442;247;39733;-76
2023/12/18 01:45:28;;;;;;;11.10;8.60;;;;;;;6.92;87.00;101312.06;112349;244;153756;-76
2023/12/18 01:48:02;;;;;;;14.90;8.80;;;;;;;6.92;86.90;101312.23;112531;246;38828;-74
2023/12/18 01:50:36;;;;;;;12.10;8.10;;;;;;;6.91;86.69;101317.10;112355;246;155498;-74
2023/12/18 01:53:13;;;;;;;13.50;8.70;;;;;;;6.92;86.98;101320.92;112431;246;38412;-74
2023/12/18 01:55:46;;;;;;;12.20;8.50;;;;;;;6.94;86.79;101316.58;112538;246;39679;-75
2023/12/18 01:58:20;;;;;;;11.40;8.50;;;;;;;6.95;86.90;101318.29;112373;244;153734;-74
2023/12/18 02:00:54;;;;;;;14.40;9.00;;;;;;;6.93;86.55;101316.06;112499;246;38351;-75
2023/12/18 02:03:28;;;;;;;11.20;8.50;;;;;;;6.91;86.63;101313.46;112334;244;154440;-75
2023/12/18 02:06:03;;;;;;;13.90;8.50;;;;;;;6.92;86.72;101319.70;112554;246;39178;-75
2023/12/18 02:08:37;;;;;;;11.80;8.50;;;;;;;6.95;86.67;101317.09;112342;244;154677;-75
2023/12/18 02:11:11;;;;;;;14.00;9.30;;;;;;;6.95;86.50;101315.69;112499;246;39617;-73
2023/12/18 02:13:45;;;;;;;11.00;8.00;;;;;;;6.94;86.38;101316.39;112434;246;38059;-73
2023/12/18 02:16:18;;;;;;;12.10;8.30;;;;;;;6.93;86.58;101309.96;112376;246;153815;-73
2023/12/18 02:18:52;;;;;;;10.70;8.20;;;;;;;6.94;86.53;101309.62;112527;246;40470;-73
2023/12/18 02:21:26;;;;;;;11.40;7.90;;;;;;;6.93;86.39;101308.06;112345;244;156398;-75
2023/12/18 02:24:00;;;;;;;13.60;8.20;;;;;;;6.97;86.52;101306.14;112514;246;38351;-76
2023/12/18 02:26:34;;;;;;;10.00;8.00;;;;;;;7.01;86.56;101299.35;112365;244;154090;-75
2023/12/18 02:29:08;;;;;;;10.30;8.10;;;;;;;7.02;86.39;101298.29;112475;246;38467;-75
2023/12/18 02:31:43;;;;;;;11.50;8.20;;;;;;;6.99;86.29;101302.13;112536;246;39412;-72
2023/12/18 02:34:17;;;;;;;11.70;7.90;;;;;;;6.99;86.30;101304.38;112335;244;155106;-73
2023/12/18 02:36:51;;;;;;;9.00;6.90;;;;;;;7.01;86.15;101303.33;112516;246;38332;-73
2023/12/18 02:39:25;;;;;;;10.50;7.60;;;;;;;7.01;85.99;101303.67;112356;246;154138;-73
2023/12/18 02:41:59;;;;;;;10.30;7.80;;;;;;;7.01;86.14;101300.55;112505;246;39505;-74
2023/12/18 02:44:33;;;;;;;11.10;7.70;;;;;;;7.02;86.18;101303.32;112287;245;153832;-73
2023/12/18 02:47:07;;;;;;;9.10;7.20;;;;;;;7.02;86.18;101311.29;112508;246;38554;-73
2023/12/18 02:49:41;;;;;;;9.20;6.90;;;;;;;7.03;86.21;101314.59;112550;246;38238;-73
2023/12/18 02:52:15;;;;;;;8.30;7.50;;;;;;;7.05;86.26;101311.27;112379;244;154124;-73
2023/12/18 02:54:49;;;;;;;9.40;7.10;;;;;;;7.08;86.17;101311.08;112543;246;38495;-73
2023/12/18 02:57:23;;;;;;;9.50;8.00;;;;;;;7.07;85.86;101309.69;112379;244;153652;-74
2023/12/18 02:59:57;;;;;;;10.40;7.90;;;;;;;7.07;85.96;101303.63;112553;246;39905;-74
2023/12/18 03:02:31;;;;;;;9.50;7.50;;;;;;;7.05;85.72;101306.23;112455;244;154812;-73
2023/12/18 03:05:05;;;;;;;8.80;7.70;;;;;;;7.03;85.52;101307.98;112516;246;38710;-73
2023/12/18 03:07:39;;;;;;;8.80;7.30;;;;;;;7.01;85.50;101305.92;112564;246;38635;-73
2023/12/18 03:10:13;;;;;;;8.80;7.00;;;;;;;7.00;85.28;101301.42;112308;244;154979;-73
2023/12/18 03:12:48;;;;;;;10.20;7.50;;;;;;;7.00;85.58;101308.55;112417;246;39450;-74
2023/12/18 03:15:22;;;;;;;8.60;7.10;;;;;;;7.00;85.19;101312.70;112365;244;153660;-74
2023/12/18 03:17:56;;;;;;;9.90;7.60;;;;;;;6.96;85.22;101312.56;112570;246;38508;-73
2023/12/18 03:20:33;;;;;;;8.60;7.20;;;;;;;6.96;85.26;101314.66;112429;244;154455;-73
2023/12/18 03:23:08;;;;;;;8.50;7.00;;;;;;;6.97;85.25;101312.89;112513;246;39797;-74
2023/12/18 03:25:42;;;;;;;8.10;7.30;;;;;;;6.97;85.09;101304.40;112557;246;39501;-74
2023/12/18 03:28:17;;;;;;;8.20;7.20;;;;;;;7.00;85.36;101301.25;112277;247;153392;-74
2023/12/18 03:30:51;;;;;;;9.50;7.10;;;;;;;7.02;85.46;101306.09;112430;247;38422;-73
2023/12/18 03:33:25;;;;;;;10.20;7.90;;;;;;;7.04;85.38;101306.94;112248;245;153772;-73
2023/12/18 03:35:59;;;;;;;8.20;6.90;;;;;;;7.04;85.22;101297.92;112443;247;39082;-75
2023/12/18 03:38:33;;;;;;;7.30;6.50;;;;;;;7.05;85.27;101305.02;112294;245;154548;-75
2023/12/18 03:41:08;;;;;;;8.30;6.90;;;;;;;7.06;85.03;101305.20;112404;247;38249;-73
2023/12/18 03:43:43;;;;;;;8.30;7.50;;;;;;;7.06;84.87;101309.35;112416;247;38849;-73
2023/12/18 03:46:17;;;;;;;8.60;7.70;;;;;;;7.04;84.95;101317.02;111620;245;902631;-73
2023/12/18 03:48:51;;;;;;;8.30;7.50;;;;;;;7.04;84.99;101312.66;112425;247;38747;-73
2023/12/18 03:51:25;;;;;;;8.00;6.90;;;;;;;7.04;84.93;101307.46;112338;245;155313;-74
2023/12/18 03:53:59;;;;;;;7.50;6.80;;;;;;;7.06;84.91;101303.46;112388;247;39709;-74
2023/12/18 03:56:33;;;;;;;8.00;7.20;;;;;;;7.07;84.65;101304.31;112428;247;38351;-75
2023/12/18 03:59:07;;;;;;;8.60;7.50;;;;;;;7.08;84.84;101302.56;112441;247;38258;-75
2023/12/18 04:01:41;;;;;;;8.70;7.60;;;;;;;7.08;84.59;101306.05;112442;247;39505;-74
2023/12/18 04:04:15;;;;;;;8.30;7.50;;;;;;;7.06;84.39;101303.27;112309;245;153679;-74
2023/12/18 04:06:49;;;;;;;9.70;7.80;;;;;;;7.04;84.49;101298.96;112445;247;38242;-73
2023/12/18 04:09:23;;;;;;;8.00;7.20;;;;;;;7.04;84.30;101292.71;112307;247;156068;-73
2023/12/18 04:11:57;;;;;;;9.90;8.00;;;;;;;7.03;84.31;101287.86;112375;247;40204;-74
2023/12/18 04:14:31;;;;;;;8.90;7.70;;;;;;;7.03;84.34;101285.09;112304;245;153862;-74
2023/12/18 04:17:05;;;;;;;10.30;8.00;;;;;;;7.03;84.41;101285.61;112416;247;39465;-73
2023/12/18 04:19:39;;;;;;;8.20;7.40;;;;;;;7.03;84.23;101287.70;112458;247;38316;-73
2023/12/18 04:22:13;;;;;;;8.50;7.40;;;;;;;7.03;84.31;101291.16;112302;245;154680;-75
2023/12/18 04:24:47;;;;;;;9.30;7.20;;;;;;;7.06;84.32;101289.59;112462;247;38461;-75
2023/12/18 04:27:21;;;;;;;8.80;7.70;;;;;;;7.06;84.13;101293.21;112183;245;174975;-75
2023/12/18 04:29:55;;;;;;;9.10;7.80;;;;;;;7.06;84.29;101292.88;112306;247;188987;-75
2023/12/18 04:32:30;;;;;;;8.90;7.30;;;;;;;7.07;84.33;101300.15;112278;245;154979;-75
2023/12/18 04:35:05;;;;;;;8.80;7.60;;;;;;;7.05;84.18;101298.61;112396;247;39713;-75
2023/12/18 04:37:39;;;;;;;9.50;7.50;;;;;;;7.05;84.13;101304.69;112446;247;38675;-74
2023/12/18 04:40:15;;;;;;;9.90;8.20;;;;;;;7.07;84.23;101298.25;112176;245;175011;-74
2023/12/18 04:42:49;;;;;;;9.20;7.90;;;;;;;7.09;84.38;101295.96;112441;247;38445;-73
2023/12/18 04:45:23;;;;;;;8.80;7.90;;;;;;;7.10;84.07;101300.83;112294;245;154011;-73
2023/12/18 04:47:57;;;;;;;9.00;7.30;;;;;;;7.07;84.12;101300.50;112430;247;40215;-75
2023/12/18 04:50:31;;;;;;;9.10;8.10;;;;;;;7.08;84.18;101306.04;112313;245;155497;-76
2023/12/18 04:53:09;;;;;;;11.30;8.30;;;;;;;7.08;84.13;101307.78;112423;247;38689;-75
2023/12/18 04:55:43;;;;;;;9.40;8.40;;;;;;;7.10;84.19;101302.90;112397;247;39870;-74
2023/12/18 04:58:17;;;;;;;9.50;7.80;;;;;;;7.13;84.17;101307.73;112320;245;153545;-74
2023/12/18 05:00:51;;;;;;;10.30;8.90;;;;;;;7.12;84.06;101307.73;112415;247;39453;-74
2023/12/18 05:03:25;;;;;;;10.20;8.10;;;;;;;7.10;84.04;101314.70;112412;247;39485;-75
2023/12/18 05:05:59;;;;;;;9.60;8.00;;;;;;;7.08;84.08;101319.92;112402;247;38854;-74
2023/12/18 05:08:35;;;;;;;9.10;8.00;;;;;;;7.10;83.94;101314.88;112332;245;155709;-74
2023/12/18 05:11:11;;;;;;;8.60;7.70;;;;;;;7.10;84.10;101313.66;112421;247;39329;-74
2023/12/18 05:13:45;;;;;;;9.20;8.30;;;;;;;7.11;83.93;101308.61;112472;247;39671;-74
2023/12/18 05:16:19;;;;;;;11.40;9.10;;;;;;;7.09;83.98;101305.51;112280;247;153175;-73
2023/12/18 05:18:54;;;;;;;10.20;8.50;;;;;;;7.10;84.11;101297.17;112417;247;38337;-73
2023/12/18 05:21:28;;;;;;;11.80;8.40;;;;;;;7.09;84.05;101292.49;112328;247;154515;-73
2023/12/18 05:24:02;;;;;;;10.40;8.40;;;;;;;7.11;84.07;101287.62;112380;247;38234;-73
2023/12/18 05:26:36;;;;;;;8.60;7.50;;;;;;;7.10;83.93;101282.08;112321;245;154681;-74
2023/12/18 05:29:10;;;;;;;9.90;8.70;;;;;;;7.11;84.07;101281.20;112393;247;38922;-74
2023/12/18 05:31:43;;;;;;;12.50;9.40;;;;;;;7.12;84.02;101293.87;112452;247;38376;-73
2023/12/18 05:34:17;;;;;;;10.40;8.80;;;;;;;7.08;83.95;101293.20;112277;245;153711;-73
2023/12/18 05:36:52;;;;;;;12.00;9.30;;;;;;;7.09;84.07;101293.71;112415;247;38674;-73
2023/12/18 05:39:27;;;;;;;10.60;8.50;;;;;;;7.10;83.87;101298.38;112275;247;154957;-73
2023/12/18 05:42:00;;;;;;;11.80;8.90;;;;;;;7.10;84.10;101299.95;112432;247;39745;-73
2023/12/18 05:44:34;;;;;;;12.10;9.10;;;;;;;7.11;84.18;101299.95;112273;248;154731;-74
2023/12/18 05:47:08;;;;;;;11.70;9.50;;;;;;;7.11;84.07;101297.68;112469;247;38722;-74
2023/12/18 05:49:43;;;;;;;11.60;9.40;;;;;;;7.09;84.08;101290.23;112465;247;39658;-74
2023/12/18 05:52:18;;;;;;;13.30;9.60;;;;;;;7.09;84.00;101295.79;112276;247;154239;-72
2023/12/18 05:54:51;;;;;;;11.40;9.40;;;;;;;7.07;84.10;101300.15;112459;247;38838;-72
2023/12/18 05:57:27;;;;;;;11.50;9.90;;;;;;;7.08;84.11;101303.79;112319;245;155076;-74
2023/12/18 06:00:01;;;;;;;9.80;8.70;;;;;;;7.10;84.26;101306.55;112459;247;38448;-74
2023/12/18 06:02:36;;;;;;;10.60;9.40;;;;;;;7.10;84.13;101304.64;112362;245;153778;-72
2023/12/18 06:05:12;;;;;;;11.70;10.00;;;;;;;7.08;84.04;101305.70;112440;247;38918;-73
2023/12/18 06:07:46;;;;;;;13.20;9.90;;;;;;;7.04;83.95;101321.33;112464;247;38271;-75
2023/12/18 06:10:20;;;;;;;12.00;9.20;;;;;;;7.04;84.16;101333.83;112261;245;154312;-76
2023/12/18 06:12:54;;;;;;;11.50;9.80;;;;;;;7.06;84.21;101339.37;112438;247;40148;-75
2023/12/18 06:15:30;;;;;;;12.50;10.60;;;;;;;7.08;84.13;101338.14;112325;247;154700;-75
2023/12/18 06:18:05;;;;;;;13.60;10.50;;;;;;;7.08;84.25;101339.52;112418;247;39471;-74
2023/12/18 06:20:39;;;;;;;12.40;9.80;;;;;;;7.08;84.38;101343.34;112396;247;39356;-75
2023/12/18 06:23:13;;;;;;;12.80;9.90;;;;;;;7.08;84.16;101336.41;112457;247;39464;-73
2023/12/18 06:25:47;;;;;;;10.70;9.20;;;;;;;7.07;84.08;101343.17;112443;247;38571;-75
2023/12/18 06:28:21;;;;;;;11.50;9.90;;;;;;;7.07;83.95;101345.26;112314;247;154171;-74
2023/12/18 06:30:55;;;;;;;11.70;9.60;;;;;;;7.07;84.03;101347.70;112457;247;39918;-74
2023/12/18 06:33:29;;;;;;;13.50;10.50;;;;;;;7.06;84.18;101348.05;112308;245;154652;-74
2023/12/18 06:36:03;;;;;;;11.60;9.70;;;;;;;7.07;84.16;101341.45;112418;247;38521;-75
2023/12/18 06:38:37;;;;;;;11.90;9.40;;;;;;;7.05;84.01;101347.71;112338;245;155592;-75
2023/12/18 06:41:12;;;;;;;11.50;9.00;;;;;;;7.05;84.01;101345.27;112438;247;38567;-77
2023/12/18 06:43:46;;;;;;;12.30;9.40;;;;;;;7.07;83.99;101351.16;112437;247;38278;-75
2023/12/18 06:46:20;;;;;;;12.60;10.30;;;;;;;7.08;84.02;101356.17;112290;245;153764;-75
2023/12/18 06:48:54;;;;;;;12.80;10.70;;;;;;;7.07;83.95;101352.54;112421;247;38563;-75
2023/12/18 06:51:28;;;;;;;13.30;9.50;;;;;;;7.05;83.91;101353.25;112290;245;155237;-74
2023/12/18 06:54:02;;;;;;;13.00;9.80;;;;;;;7.05;83.90;101354.48;112448;247;38558;-74
2023/12/18 06:56:37;;;;;;;13.70;10.10;;;;;;;7.04;83.77;101346.33;112331;245;155579;-75
2023/12/18 06:59:11;;;;;;;13.20;10.70;;;;;;;7.05;83.87;101339.03;112428;247;38514;-75
2023/12/18 07:01:45;;;;;;;13.10;9.80;;;;;;;7.06;83.87;101339.04;112410;247;39733;-75
2023/12/18 07:04:19;;;;;;;12.80;10.90;;;;;;;7.08;83.94;101342.83;112306;245;154808;-75
2023/12/18 07:06:54;;;;;;;13.60;10.50;;;;;;;7.08;83.96;101341.44;112443;247;38312;-74
2023/12/18 07:09:28;;;;;;;13.40;9.80;;;;;;;7.09;83.90;101344.90;112298;245;154551;-74
2023/12/18 07:12:03;;;;;;;14.40;10.30;;;;;;;7.09;83.94;101343.34;112424;247;38309;-73
2023/12/18 07:14:38;;;;;;;12.50;10.50;;;;;;;7.10;83.70;101333.61;112283;245;155537;-73
2023/12/18 07:17:12;;;;;;;14.20;10.50;;;;;;;7.09;83.68;101323.38;112422;247;39356;-74
2023/12/18 07:19:46;;;;;;;13.70;10.70;;;;;;;7.09;83.72;101325.46;112446;247;38397;-74
2023/12/18 07:22:20;;;;;;;13.40;10.70;;;;;;;7.09;83.60;101339.88;112315;245;154909;-73
2023/12/18 07:24:54;;;;;;;12.30;9.70;;;;;;;7.08;83.57;101347.33;112423;247;38582;-73
2023/12/18 07:27:28;;;;;;;12.80;10.00;;;;;;;7.10;83.68;101353.05;112343;245;154121;-74
2023/12/18 07:30:03;;;;;;;14.20;10.20;;;;;;;7.11;83.58;101357.55;112393;247;38793;-74
2023/12/18 07:32:37;;;;;;;13.90;10.90;;;;;;;7.11;83.72;101359.29;112318;245;154172;-74
2023/12/18 07:35:11;;;;;;;14.70;10.40;;;;;;;7.10;83.40;101353.57;112424;247;38281;-74
2023/12/18 07:37:45;;;;;;;12.80;10.10;;;;;;;7.06;83.44;101354.81;112450;247;38292;-75
2023/12/18 07:40:19;;;;;;;13.40;10.60;;;;;;;7.09;83.70;101362.06;112308;245;155194;-75
2023/12/18 07:42:55;;;;;;;11.80;9.70;;;;;;;7.14;83.67;101361.69;112452;247;39073;-74
2023/12/18 07:45:29;;;;;;;14.30;10.70;;;;;;;7.15;83.56;101369.33;112302;245;153657;-74
2023/12/18 07:48:03;;;;;;;14.80;11.40;;;;;;;7.16;83.55;101369.65;112414;247;38528;-73
2023/12/18 07:50:37;;;;;;;14.30;11.30;;;;;;;7.14;83.25;101370.71;112264;245;154045;-74
2023/12/18 07:53:12;;;;;;;13.10;9.80;;;;;;;7.12;83.28;101365.17;112433;247;38784;-74
2023/12/18 07:55:46;;;;;;;13.30;10.30;;;;;;;7.12;83.41;101366.39;112443;247;39718;-74
2023/12/18 07:58:20;;;;;;;12.00;9.70;;;;;;;7.13;83.40;101367.94;112314;246;155709;-74
2023/12/18 08:00:54;;;;;;;14.30;10.50;;;;;;;7.15;83.26;101363.77;112467;247;39727;-74
2023/12/18 08:03:28;;;;;;;16.40;12.10;;;;;;;7.16;83.36;101367.58;112365;244;155001;-74
2023/12/18 08:06:02;;;;;;;13.80;10.70;;;;;;;7.18;83.68;101365.46;112563;246;38943;-74
2023/12/18 08:08:36;;;;;;;15.40;11.90;;;;;;;7.17;83.61;101364.80;112404;244;155393;-74
2023/12/18 08:11:13;;;;;;;13.40;10.40;;;;;;;7.17;83.87;101366.52;112441;246;38832;-75
2023/12/18 08:13:48;;;;;;;15.00;10.70;;;;;;;7.17;83.81;101362.17;112597;246;38838;-75
2023/12/18 08:16:23;;;;;;;16.40;11.10;;;;;;;7.20;83.99;101351.40;112373;244;154115;-75
2023/12/18 08:18:57;;;;;;;14.60;11.50;;;;;;;7.23;84.04;101355.70;112565;246;38328;-75
2023/12/18 08:21:31;;;;;;;16.50;11.50;;;;;;;7.24;84.14;101351.19;112384;244;153837;-74
2023/12/18 08:24:06;;;;;;;16.20;10.70;;;;;;;7.26;84.26;101359.15;112514;246;39617;-74
2023/12/18 08:26:40;;;;;;;14.80;10.70;;;;;;;7.27;84.11;101358.64;112447;244;155629;-75
2023/12/18 08:29:14;;;;;;;12.80;10.70;;;;;;;7.30;84.13;101353.05;112494;246;39453;-75
2023/12/18 08:31:48;;;;;;;14.40;11.50;;;;;;;7.34;84.15;101354.41;112593;246;39460;-75
2023/12/18 08:34:22;;;;;;;15.20;11.70;;;;;;;7.40;84.15;101358.35;112301;246;153974;-75
2023/12/18 08:36:56;;;;;;;14.90;11.90;;;;;;;7.42;84.12;101355.37;112461;247;38243;-74
2023/12/18 08:39:30;;;;;;;15.90;11.30;;;;;;;7.42;83.98;101357.63;112316;237;158321;-73
2023/12/18 08:42:04;;;;;;;16.90;11.60;;;;;;;7.42;83.80;101354.16;112443;247;38972;-75
2023/12/18 08:44:38;;;;;;;15.00;11.70;;;;;;;7.44;83.72;101361.77;112326;245;155696;-75
2023/12/18 08:47:13;;;;;;;16.00;11.10;;;;;;;7.49;83.89;101358.95;112318;247;174932;-75
2023/12/18 08:49:46;;;;;;;16.70;11.70;;;;;;;7.52;83.52;101349.72;112475;247;38237;-75
2023/12/18 08:52:20;;;;;;;15.80;11.40;;;;;;;7.53;83.40;101354.73;112311;245;155612;-75
2023/12/18 08:54:54;;;;;;;17.20;12.70;;;;;;;7.53;83.18;101349.88;112448;247;39509;-74
2023/12/18 08:57:29;;;;;;;15.30;11.40;;;;;;;7.52;83.25;101354.76;112279;245;154293;-71
2023/12/18 09:00:04;;;;;;;15.80;11.00;;;;;;;7.53;83.28;101364.12;112406;247;38266;-73
2023/12/18 09:02:38;;;;;;;13.70;11.00;;;;;;;7.59;83.29;101356.26;112262;245;155778;-73
2023/12/18 09:05:13;;;;;;;14.30;11.30;;;;;;;7.66;83.21;101355.30;112450;247;39022;-73
2023/12/18 09:07:49;;;;;;;14.40;11.00;;;;;;;7.72;83.19;101356.98;112466;247;39547;-73
2023/12/18 09:10:23;;;;;;;16.00;12.30;;;;;;;7.81;83.29;101353.24;112321;247;172326;-73
2023/12/18 09:12:58;;;;;;;15.30;11.40;;;;;;;7.85;83.18;101351.46;112474;247;39106;-73
2023/12/18 09:15:32;;;;;;;16.20;11.60;;;;;;;7.89;83.00;101347.78;112104;246;228335;-73
2023/12/18 09:18:08;;;;;;;13.70;10.20;;;;;;;7.93;82.59;101346.16;112429;247;38832;-73
2023/12/18 09:20:42;;;;;;;15.10;11.20;;;;;;;7.95;82.37;101344.23;112434;247;38380;-73
2023/12/18 09:23:16;;;;;;;17.30;12.60;;;;;;;7.98;82.37;101344.55;112459;247;39732;-73
2023/12/18 09:25:50;;;;;;;16.60;12.10;;;;;;;8.01;82.43;101338.77;112459;247;39131;-73
2023/12/18 09:28:24;;;;;;;17.10;12.20;;;;;;;8.05;82.19;101339.77;112297;245;154075;-73
2023/12/18 09:30:59;;;;;;;16.90;12.50;;;;;;;8.06;81.85;101337.67;112445;247;38582;-73
2023/12/18 09:33:33;;;;;;;14.80;11.30;;;;;;;8.07;81.91;101339.92;112298;247;155727;-73
2023/12/18 09:36:08;;;;;;;17.30;11.90;;;;;;;8.07;81.65;101342.52;112435;247;39362;-73
2023/12/18 09:38:43;;;;;;;16.00;12.20;;;;;;;8.06;81.57;101344.10;112264;245;154471;-73
2023/12/18 09:41:25;;;;;;;15.90;11.80;;;;;;;8.05;81.64;101347.94;112434;247;38386;-72
2023/12/18 09:43:59;;;;;;;16.20;11.90;;;;;;;8.02;81.36;101339.63;112452;247;39278;-72
2023/12/18 09:46:33;;;;;;;15.10;11.10;;;;;;;7.98;81.38;101340.55;112300;245;154229;-73
2023/12/18 09:49:07;;;;;;;16.80;11.30;;;;;;;7.97;81.50;101340.72;112460;247;38629;-73
2023/12/18 09:51:42;;;;;;;17.20;11.60;;;;;;;7.98;81.61;101337.06;111627;245;905997;-73
2023/12/18 09:54:16;;;;;;;17.30;11.70;;;;;;;8.02;81.73;101344.14;112424;247;38507;-73
2023/12/18 09:56:50;;;;;;;13.60;11.50;;;;;;;8.07;81.84;101345.11;112316;245;154977;-74
2023/12/18 09:59:24;;;;;;;15.70;12.00;;;;;;;8.10;81.83;101344.73;112416;247;39792;-73
2023/12/18 10:01:58;;;;;;;17.50;12.20;;;;;;;8.09;81.74;101333.64;112308;247;174898;-72
2023/12/18 10:04:32;;;;;;;18.70;12.20;;;;;;;8.08;81.84;101337.30;112260;247;154481;-72
2023/12/18 10:07:07;;;;;;;15.80;12.00;;;;;;;8.07;81.74;101339.56;112397;247;37997;-72
2023/12/18 10:09:41;;;;;;;16.10;11.50;;;;;;;8.08;81.79;101339.20;112313;245;155527;-72
2023/12/18 10:12:17;;;;;;;17.20;11.70;;;;;;;8.10;81.87;101339.17;112441;247;38256;-75
2023/12/18 10:14:51;;;;;;;19.20;13.70;;;;;;;8.13;81.96;101337.05;112368;245;154018;-75
2023/12/18 10:17:25;;;;;;;16.30;12.90;;;;;;;8.15;81.98;101339.13;112430;247;39129;-74
2023/12/18 10:19:59;;;;;;;16.70;13.10;;;;;;;8.12;81.85;101339.67;112269;247;174898;-75
2023/12/18 10:22:34;;;;;;;16.20;11.90;;;;;;;8.11;81.97;101341.09;112308;245;154781;-74
2023/12/18 10:25:09;;;;;;;16.00;11.60;;;;;;;8.09;81.98;101340.23;112295;247;174906;-74
2023/12/18 10:27:45;;;;;;;15.30;12.10;;;;;;;8.08;81.90;101335.03;112282;247;155086;-74
2023/12/18 10:30:20;;;;;;;18.10;12.50;;;;;;;8.10;82.08;101334.50;112434;248;38226;-74
2023/12/18 10:32:54;;;;;;;17.50;14.00;;;;;;;8.10;82.11;101333.98;112345;245;154108;-75
2023/12/18 10:35:30;;;;;;;19.80;13.90;;;;;;;8.10;82.45;101332.92;112427;247;38257;-76
2023/12/18 10:38:05;;;;;;;18.70;12.90;;;;;;;8.11;82.50;101334.64;112471;247;38480;-74
2023/12/18 10:40:39;;;;;;;17.80;12.70;;;;;;;8.13;82.68;101337.77;112297;245;154629;-73
2023/12/18 10:43:22;;;;;;;18.00;13.10;;;;;;;8.14;82.68;101336.70;112431;247;40009;-73
2023/12/18 10:45:56;;;;;;;19.60;12.90;;;;;;;8.16;82.98;101335.98;112286;245;156464;-74
2023/12/18 10:48:31;;;;;;;19.20;13.50;;;;;;;8.17;83.25;101337.69;112433;247;38553;-74
2023/12/18 10:51:05;;;;;;;16.50;13.40;;;;;;;8.19;83.46;101336.11;112318;245;155275;-74
2023/12/18 10:53:39;;;;;;;18.60;13.10;;;;;;;8.17;83.44;101337.70;112424;247;39466;-75
2023/12/18 10:56:14;;;;;;;18.00;12.20;;;;;;;8.17;83.50;101336.84;112390;247;38455;-73
2023/12/18 10:58:48;;;;;;;16.70;12.00;;;;;;;8.17;83.62;101339.96;112294;245;155578;-73
2023/12/18 11:01:23;;;;;;;17.00;13.00;;;;;;;8.15;83.69;101340.67;112432;247;38518;-74
2023/12/18 11:03:57;;;;;;;16.80;13.10;;;;;;;8.17;83.98;101341.00;112172;245;172299;-74
2023/12/18 11:06:31;;;;;;;18.70;12.70;;;;;;;8.17;84.03;101339.11;112428;247;38540;-73
2023/12/18 11:09:05;;;;;;;17.10;13.10;;;;;;;8.16;84.35;101335.45;112281;245;154846;-73
2023/12/18 11:11:39;;;;;;;18.10;12.50;;;;;;;8.17;84.55;101337.87;112418;247;38393;-74
2023/12/18 11:14:21;;;;;;;15.70;11.90;;;;;;;8.19;84.58;101332.81;112411;247;38319;-74
2023/12/18 11:17:08;;;;;;;17.10;13.40;;;;;;;8.20;84.95;101331.75;112293;247;155121;-75
2023/12/18 11:19:48;;;;;;;15.00;12.60;;;;;;;8.23;85.28;101327.20;112432;247;38799;-75
2023/12/18 11:22:34;;;;;;;18.00;13.60;;;;;;;8.26;85.70;101326.27;112295;245;154387;-74
2023/12/18 11:25:09;;;;;;;18.40;12.80;;;;;;;8.30;85.97;101325.02;112457;247;38435;-74
2023/12/18 11:27:44;;;;;;;16.20;12.00;;;;;;;8.31;85.98;101325.70;112342;245;157079;-74
2023/12/18 11:30:30;;;;;;;18.30;12.70;;;;;;;8.35;86.22;101324.61;112432;247;38723;-74
2023/12/18 11:33:07;;;;;;;16.60;13.60;;;;;;;8.42;86.35;101323.16;112293;245;155493;-74
2023/12/18 11:35:51;;;;;;;18.70;14.10;;;;;;;8.46;86.47;101322.05;112427;247;38582;-73
2023/12/18 11:38:26;;;;;;;21.70;15.10;;;;;;;8.47;86.60;101325.52;112405;247;39278;-73
2023/12/18 11:41:00;;;;;;;20.80;14.50;;;;;;;8.45;86.53;101324.15;112323;245;154035;-74
2023/12/18 11:43:44;;;;;;;18.50;13.70;;;;;;;8.41;86.39;101321.09;112408;247;38422;-73
2023/12/18 11:46:18;;;;;;;18.30;13.40;;;;;;;8.38;86.45;101323.55;112303;247;154690;-73
2023/12/18 11:48:53;;;;;;;19.60;14.20;;;;;;;8.38;86.67;101326.15;112443;247;39860;-73
2023/12/18 11:51:28;;;;;;;18.40;14.60;;;;;;;8.38;86.68;101329.45;112304;245;154904;-74